Flight Track Log - Related Links

Times and Time Zones

All times are in EDT time to prevent confusion due to time zone crossing. See the KAP444 flight status page for this flight to view local times or setup timezone preferences in your user account.


Time Position Orientation Groundspeed Altitude Reporting Facility
EDT Latitude Longitude Course Direction KTS MPH feet Rate Location/Type
Sun 04:55:37 PM 41.3461 -70.9167 264° West 123 142 5,000  Level Boston Center
Sun 04:57:02 PM 41.3406 -70.9831 264° West 124 143 6,000 575 Climbing Boston Center
Sun 04:58:03 PM 41.3369 -71.0303 264° West 127 146 6,400 259 Climbing Boston Center
Sun 04:58:58 PM 41.3336 -71.0828 265° West 154 177 6,500 52 Climbing Boston Center
Sun 04:59:59 PM 41.3239 -71.1436 258° West 167 192 6,500  Level Boston Center
Sun 05:01:00 PM 41.3183 -71.2075 263° West 170 196 6,500  Level Boston Center
Sun 05:01:54 PM 41.3128 -71.2656 263° West 174 200 6,500  Level Boston Center
Sun 05:02:55 PM 41.3050 -71.3319 261° West 176 203 6,500  Level Boston Center
Sun 05:03:56 PM 41.3014 -71.3928 266° West 177 204 6,500  Level Boston Center
Sun 05:05:00 PM 41.2812 -71.4189 224° Southwest  Level FlightAware Approximate
Sun 05:05:52 PM 41.2919 -71.5175 224° Southwest 176 203 6,500  Level Boston Center
Sun 05:06:52 PM 41.2864 -71.5811 263° West 174 200 6,500  Level Boston Center
Sun 05:07:59 PM 41.2786 -71.6528 262° West 174 200 6,500  Level Boston Center
Sun 05:08:54 PM 41.2747 -71.7136 265° West 173 199 6,500  Level Boston Center
Sun 05:09:54 PM 41.2689 -71.7772 263° West 174 200 6,500  Level Boston Center
Sun 05:10:55 PM 41.2608 -71.8408 260° West 171 197 6,500  Level Boston Center
Sun 05:11:55 PM 41.2550 -71.9017 263° West 170 196 6,500  Level Boston Center
Sun 05:12:56 PM 41.2511 -71.9653 265° West 172 198 6,500  Level Boston Center
Sun 05:13:57 PM 41.2450 -72.0289 263° West 170 196 6,500  Level Boston Center
Sun 05:14:57 PM 41.2392 -72.0894 263° West 171 197 6,500  Level Boston Center
Sun 05:16:04 PM 41.2289 -72.1614 259° West 170 196 6,500  Level Boston Center
Sun 05:18:00 PM 41.2079 -72.2621 255° West  Level FlightAware Approximate
Sun 05:18:44 PM 41.2167 -72.3167 255° West 172 198 6,500  Level New York TRACON
Sun 05:19:44 PM 41.2000 -72.3833 252° West 171 197 6,500  Level New York TRACON
Sun 05:20:44 PM 41.2000 -72.4500 270° West 172 198 6,500  Level New York TRACON
Sun 05:21:38 PM 41.2000 -72.5000 270° West 169 194 6,500  Level New York TRACON
Sun 05:22:44 PM 41.1833 -72.5667 252° West 169 194 6,500  Level New York TRACON
Sun 05:23:38 PM 41.1833 -72.6333 270° West 168 193 6,500  Level New York TRACON
Sun 05:24:38 PM 41.1833 -72.6833 270° West 170 196 6,500  Level New York TRACON
Sun 05:25:38 PM 41.1667 -72.7500 252° West 170 196 6,500  Level New York TRACON
Sun 05:26:44 PM 41.1667 -72.8167 270° West 170 196 6,500  Level New York TRACON
Sun 05:27:44 PM 41.1500 -72.8833 252° West 171 197 6,500 -50 Level New York TRACON
Sun 05:28:44 PM 41.1500 -72.9333 270° West 167 192 6,400 -250 Descending New York TRACON
Sun 05:29:44 PM 41.1500 -73.0000 270° West 172 198 6,000 -400 Descending New York TRACON
Sun 05:30:44 PM 41.1333 -73.0667 252° West 171 197 5,600 -400 Descending New York TRACON
Sun 05:31:44 PM 41.1333 -73.1333 270° West 172 198 5,200 -400 Descending New York TRACON
Sun 05:32:44 PM 41.1167 -73.1833 246° West 171 197 4,800 -450 Descending New York TRACON
Sun 05:33:44 PM 41.1167 -73.2500 270° West 169 194 4,300 -500 Descending New York TRACON
Sun 05:34:44 PM 41.1167 -73.3167 270° West 168 193 3,800 -500 Descending New York TRACON
Sun 05:35:44 PM 41.1000 -73.3667 246° West 167 192 3,300 -500 Descending New York TRACON
Sun 05:36:44 PM 41.1000 -73.4333 270° West 166 191 2,800 -450 Descending New York TRACON
Sun 05:37:44 PM 41.1000 -73.5000 270° West 164 189 2,400 -400 Descending New York TRACON
Sun 05:38:44 PM 41.0833 -73.5500 246° West 165 190 2,000 -263 Descending New York TRACON
Sun 05:39:38 PM 41.0833 -73.6000 270° West 157 181 1,900  Descending New York TRACON
Sun 05:40:38 PM 41.1000 -73.6500 294° West 161 185 2,000 100 Climbing New York TRACON
Sun 05:41:38 PM 41.1333 -73.7000 312° West 162 186 2,100 -250 Climbing New York TRACON
Sun 05:42:38 PM 41.1000 -73.7333 217° Southwest 126 145 1,500 -600 Descending New York TRACON
Sun 05:44:00 PM 41.0669 -73.7076 150° Southeast  Level Estimated
Sun 05:51:00 PM 41.0669 -73.7076 37° Northeast  Level Estimated
Sun 05:52:00 PM 41.0669 -73.7076 37° Northeast  Level Estimated
Sun 05:53:00 PM 41.0669 -73.7076 37° Northeast  Level Estimated
Sun 05:54:00 PM 41.0669 -73.7076 37° Northeast  Level Estimated
Sun 05:55:00 PM 41.0669 -73.7076 37° Northeast  Level Estimated
Sun 05:56:00 PM 41.0669 -73.7076 37° Northeast  Level Estimated
Sun 05:57:00 PM 41.0669 -73.7076 37° Northeast  Level Estimated
Sun 05:58:00 PM 41.0669 -73.7076 37° Northeast  Level Estimated
Sun 05:59:00 PM 41.0669 -73.7076 37° Northeast  Level Estimated
Sun 06:00:00 PM 41.0669 -73.7076 37° Northeast  Level Estimated

Login

Don't have an account? Register now (free) for customized features, flight alerts, and more!